Fraserburgh, United Kingdom
Current Conditions -  °F | °C
As of 2:50 PM on Thursday 18 Dec 2014 (Local Time) from EGPD Reporting Station
Broken Clouds Broken Clouds  
Wind Chill: 44°   Ceiling: 3600
Heat Index: 46°   Visibility: 6mi
Dew Point: 39°   Wind: 5mph
Humidity: 76%   Direction: 220°SW
Pressure: 29.26"   Gusts: NA
Location:  57.69°N, 2.02°W
Report Text: EGPD 181450Z 22004KT 9999 BKN036 08/04 Q0991 NOSIG
Loading
Personal Weather Stations






























Interactive Weather Map New forecast layout! Learn more

10-Day Weather Forecast

Advertisements
Track Severe Weather on mobile